sensor_id;sensor_type;location;lat;lon;timestamp;P1;durP1;ratioP1;P2;durP2;ratioP2
54539;SDS011;40438;52.992;18.604;2022-09-14T00:00:20;28.48;;;16.50;;
54539;SDS011;40438;52.992;18.604;2022-09-14T00:02:48;34.33;;;16.00;;
54539;SDS011;40438;52.992;18.604;2022-09-14T00:05:13;32.65;;;17.10;;
54539;SDS011;40438;52.992;18.604;2022-09-14T00:07:39;38.03;;;17.50;;
54539;SDS011;40438;52.992;18.604;2022-09-14T00:10:05;33.75;;;17.58;;
54539;SDS011;40438;52.992;18.604;2022-09-14T00:12:31;32.08;;;16.60;;
54539;SDS011;40438;52.992;18.604;2022-09-14T00:14:57;29.30;;;16.15;;
54539;SDS011;40438;52.992;18.604;2022-09-14T00:17:23;29.60;;;15.00;;
54539;SDS011;40438;52.992;18.604;2022-09-14T00:19:50;31.55;;;16.25;;
54539;SDS011;40438;52.992;18.604;2022-09-14T00:22:16;29.33;;;15.10;;
54539;SDS011;40438;52.992;18.604;2022-09-14T00:24:41;27.13;;;15.80;;
54539;SDS011;40438;52.992;18.604;2022-09-14T00:27:07;35.40;;;16.08;;
54539;SDS011;40438;52.992;18.604;2022-09-14T00:29:33;32.35;;;16.52;;
54539;SDS011;40438;52.992;18.604;2022-09-14T00:31:59;27.92;;;15.38;;
54539;SDS011;40438;52.992;18.604;2022-09-14T00:34:24;27.17;;;16.33;;
54539;SDS011;40438;52.992;18.604;2022-09-14T00:36:52;27.45;;;14.70;;
54539;SDS011;40438;52.992;18.604;2022-09-14T00:39:20;27.58;;;14.43;;
54539;SDS011;40438;52.992;18.604;2022-09-14T00:41:47;28.40;;;14.90;;
54539;SDS011;40438;52.992;18.604;2022-09-14T00:47:16;31.00;;;14.45;;
54539;SDS011;40438;52.992;18.604;2022-09-14T00:49:43;22.88;;;13.43;;
54539;SDS011;40438;52.992;18.604;2022-09-14T00:52:11;23.50;;;13.50;;
54539;SDS011;40438;52.992;18.604;2022-09-14T00:54:41;26.08;;;13.88;;
54539;SDS011;40438;52.992;18.604;2022-09-14T00:57:09;25.67;;;14.15;;
54539;SDS011;40438;52.992;18.604;2022-09-14T00:59:36;25.58;;;14.73;;
54539;SDS011;40438;52.992;18.604;2022-09-14T01:02:04;28.90;;;15.32;;
54539;SDS011;40438;52.992;18.604;2022-09-14T01:04:31;28.15;;;15.70;;
54539;SDS011;40438;52.992;18.604;2022-09-14T01:06:59;24.40;;;13.65;;
54539;SDS011;40438;52.992;18.604;2022-09-14T01:09:34;27.77;;;14.50;;
54539;SDS011;40438;52.992;18.604;2022-09-14T01:12:10;25.02;;;14.68;;
54539;SDS011;40438;52.992;18.604;2022-09-14T01:14:47;25.35;;;14.63;;
54539;SDS011;40438;52.992;18.604;2022-09-14T01:17:21;25.33;;;14.50;;
54539;SDS011;40438;52.992;18.604;2022-09-14T01:19:58;28.52;;;14.20;;
54539;SDS011;40438;52.992;18.604;2022-09-14T01:25:08;25.20;;;13.52;;
54539;SDS011;40438;52.992;18.604;2022-09-14T01:27:43;26.38;;;14.23;;
54539;SDS011;40438;52.992;18.604;2022-09-14T01:30:11;28.48;;;14.05;;
54539;SDS011;40438;52.992;18.604;2022-09-14T01:32:41;26.40;;;15.35;;
54539;SDS011;40438;52.992;18.604;2022-09-14T01:35:15;26.40;;;15.10;;
54539;SDS011;40438;52.992;18.604;2022-09-14T01:37:48;28.42;;;15.65;;
54539;SDS011;40438;52.992;18.604;2022-09-14T01:40:19;28.80;;;15.07;;
54539;SDS011;40438;52.992;18.604;2022-09-14T01:42:52;31.40;;;16.13;;
54539;SDS011;40438;52.992;18.604;2022-09-14T01:45:22;29.25;;;16.17;;
54539;SDS011;40438;52.992;18.604;2022-09-14T01:47:51;31.55;;;16.27;;
54539;SDS011;40438;52.992;18.604;2022-09-14T01:50:22;30.70;;;14.88;;
54539;SDS011;40438;52.992;18.604;2022-09-14T01:52:52;27.95;;;15.40;;
54539;SDS011;40438;52.992;18.604;2022-09-14T01:55:23;30.15;;;14.82;;
54539;SDS011;40438;52.992;18.604;2022-09-14T01:57:53;29.13;;;15.18;;
54539;SDS011;40438;52.992;18.604;2022-09-14T02:00:26;31.90;;;15.07;;
54539;SDS011;40438;52.992;18.604;2022-09-14T02:02:53;26.52;;;14.52;;
54539;SDS011;40438;52.992;18.604;2022-09-14T02:05:25;27.75;;;15.02;;
54539;SDS011;40438;52.992;18.604;2022-09-14T02:07:54;28.30;;;15.40;;
54539;SDS011;40438;52.992;18.604;2022-09-14T02:10:20;28.00;;;15.55;;
54539;SDS011;40438;52.992;18.604;2022-09-14T02:12:46;26.27;;;14.52;;
54539;SDS011;40438;52.992;18.604;2022-09-14T02:15:14;26.65;;;14.50;;
54539;SDS011;40438;52.992;18.604;2022-09-14T02:17:40;26.23;;;14.35;;
54539;SDS011;40438;52.992;18.604;2022-09-14T02:20:08;27.67;;;14.32;;
54539;SDS011;40438;52.992;18.604;2022-09-14T02:22:39;27.08;;;15.43;;
54539;SDS011;40438;52.992;18.604;2022-09-14T02:25:05;24.88;;;14.32;;
54539;SDS011;40438;52.992;18.604;2022-09-14T02:27:31;26.52;;;15.20;;
54539;SDS011;40438;52.992;18.604;2022-09-14T02:29:57;33.30;;;15.57;;
54539;SDS011;40438;52.992;18.604;2022-09-14T02:32:25;34.08;;;15.70;;
54539;SDS011;40438;52.992;18.604;2022-09-14T02:35:00;33.83;;;16.77;;
54539;SDS011;40438;52.992;18.604;2022-09-14T02:37:35;38.08;;;18.58;;
54539;SDS011;40438;52.992;18.604;2022-09-14T02:40:11;34.75;;;18.08;;
54539;SDS011;40438;52.992;18.604;2022-09-14T02:42:43;34.13;;;18.25;;
54539;SDS011;40438;52.992;18.604;2022-09-14T02:45:23;42.63;;;19.42;;
54539;SDS011;40438;52.992;18.604;2022-09-14T02:48:00;41.28;;;20.10;;
54539;SDS011;40438;52.992;18.604;2022-09-14T02:50:33;34.95;;;18.05;;
54539;SDS011;40438;52.992;18.604;2022-09-14T02:53:03;34.50;;;17.42;;
54539;SDS011;40438;52.992;18.604;2022-09-14T02:55:33;37.15;;;17.08;;
54539;SDS011;40438;52.992;18.604;2022-09-14T02:58:03;36.40;;;17.60;;
54539;SDS011;40438;52.992;18.604;2022-09-14T03:00:32;30.73;;;15.20;;
54539;SDS011;40438;52.992;18.604;2022-09-14T03:03:00;28.90;;;15.00;;
54539;SDS011;40438;52.992;18.604;2022-09-14T03:05:26;28.98;;;15.90;;
54539;SDS011;40438;52.992;18.604;2022-09-14T03:07:52;30.08;;;13.93;;
54539;SDS011;40438;52.992;18.604;2022-09-14T03:10:18;29.08;;;15.43;;
54539;SDS011;40438;52.992;18.604;2022-09-14T03:12:43;23.95;;;13.32;;
54539;SDS011;40438;52.992;18.604;2022-09-14T03:15:09;27.00;;;14.50;;
54539;SDS011;40438;52.992;18.604;2022-09-14T03:17:35;30.48;;;13.82;;
54539;SDS011;40438;52.992;18.604;2022-09-14T03:20:03;25.75;;;12.70;;
54539;SDS011;40438;52.992;18.604;2022-09-14T03:22:29;25.30;;;12.88;;
54539;SDS011;40438;52.992;18.604;2022-09-14T03:24:56;22.60;;;12.60;;
54539;SDS011;40438;52.992;18.604;2022-09-14T03:27:22;23.25;;;11.90;;
54539;SDS011;40438;52.992;18.604;2022-09-14T03:29:47;21.65;;;12.05;;
54539;SDS011;40438;52.992;18.604;2022-09-14T03:32:13;23.65;;;12.45;;
54539;SDS011;40438;52.992;18.604;2022-09-14T03:34:39;18.75;;;10.88;;
54539;SDS011;40438;52.992;18.604;2022-09-14T03:37:06;20.85;;;10.90;;
54539;SDS011;40438;52.992;18.604;2022-09-14T03:39:31;19.98;;;11.68;;
54539;SDS011;40438;52.992;18.604;2022-09-14T03:41:57;19.48;;;10.80;;
54539;SDS011;40438;52.992;18.604;2022-09-14T03:44:23;22.45;;;11.25;;
54539;SDS011;40438;52.992;18.604;2022-09-14T03:46:49;21.75;;;12.10;;
54539;SDS011;40438;52.992;18.604;2022-09-14T03:49:14;23.27;;;11.25;;
54539;SDS011;40438;52.992;18.604;2022-09-14T03:51:40;24.25;;;13.05;;
54539;SDS011;40438;52.992;18.604;2022-09-14T03:54:07;21.77;;;11.85;;
54539;SDS011;40438;52.992;18.604;2022-09-14T03:56:33;22.70;;;12.55;;
54539;SDS011;40438;52.992;18.604;2022-09-14T03:58:59;23.48;;;13.20;;
54539;SDS011;40438;52.992;18.604;2022-09-14T04:01:24;22.30;;;12.43;;
54539;SDS011;40438;52.992;18.604;2022-09-14T04:03:50;21.95;;;12.25;;
54539;SDS011;40438;52.992;18.604;2022-09-14T04:06:16;27.02;;;14.32;;
54539;SDS011;40438;52.992;18.604;2022-09-14T04:08:43;23.05;;;12.45;;
54539;SDS011;40438;52.992;18.604;2022-09-14T04:11:13;23.92;;;12.45;;
54539;SDS011;40438;52.992;18.604;2022-09-14T04:13:40;23.42;;;13.05;;
54539;SDS011;40438;52.992;18.604;2022-09-14T04:16:06;22.13;;;11.75;;
54539;SDS011;40438;52.992;18.604;2022-09-14T04:18:32;28.95;;;12.90;;
54539;SDS011;40438;52.992;18.604;2022-09-14T04:20:58;24.92;;;13.35;;
54539;SDS011;40438;52.992;18.604;2022-09-14T04:23:26;29.05;;;13.60;;
54539;SDS011;40438;52.992;18.604;2022-09-14T04:25:52;26.23;;;14.05;;
54539;SDS011;40438;52.992;18.604;2022-09-14T04:28:19;27.50;;;14.52;;
54539;SDS011;40438;52.992;18.604;2022-09-14T04:30:53;33.30;;;15.35;;
54539;SDS011;40438;52.992;18.604;2022-09-14T04:33:19;29.50;;;15.23;;
54539;SDS011;40438;52.992;18.604;2022-09-14T04:35:45;31.00;;;16.05;;
54539;SDS011;40438;52.992;18.604;2022-09-14T04:38:20;30.33;;;15.20;;
54539;SDS011;40438;52.992;18.604;2022-09-14T04:40:46;32.28;;;16.67;;
54539;SDS011;40438;52.992;18.604;2022-09-14T04:43:11;36.17;;;16.08;;
54539;SDS011;40438;52.992;18.604;2022-09-14T04:45:39;30.95;;;16.55;;
54539;SDS011;40438;52.992;18.604;2022-09-14T04:48:04;34.65;;;15.38;;
54539;SDS011;40438;52.992;18.604;2022-09-14T04:50:30;28.98;;;14.23;;
54539;SDS011;40438;52.992;18.604;2022-09-14T04:53:00;30.08;;;15.02;;
54539;SDS011;40438;52.992;18.604;2022-09-14T04:55:26;27.60;;;13.98;;
54539;SDS011;40438;52.992;18.604;2022-09-14T04:57:52;30.70;;;14.77;;
54539;SDS011;40438;52.992;18.604;2022-09-14T05:00:18;29.13;;;13.85;;
54539;SDS011;40438;52.992;18.604;2022-09-14T05:02:45;31.63;;;15.02;;
54539;SDS011;40438;52.992;18.604;2022-09-14T05:05:11;28.85;;;13.93;;
54539;SDS011;40438;52.992;18.604;2022-09-14T05:07:37;28.13;;;14.23;;
54539;SDS011;40438;52.992;18.604;2022-09-14T05:10:03;30.15;;;14.93;;
54539;SDS011;40438;52.992;18.604;2022-09-14T05:12:29;31.20;;;14.35;;
54539;SDS011;40438;52.992;18.604;2022-09-14T05:14:55;31.92;;;15.25;;
54539;SDS011;40438;52.992;18.604;2022-09-14T05:17:20;26.55;;;14.18;;
54539;SDS011;40438;52.992;18.604;2022-09-14T05:19:48;29.60;;;14.00;;
54539;SDS011;40438;52.992;18.604;2022-09-14T05:22:13;28.80;;;14.52;;
54539;SDS011;40438;52.992;18.604;2022-09-14T05:24:39;28.00;;;14.48;;
54539;SDS011;40438;52.992;18.604;2022-09-14T05:27:05;32.53;;;14.55;;
54539;SDS011;40438;52.992;18.604;2022-09-14T05:29:31;26.83;;;14.85;;
54539;SDS011;40438;52.992;18.604;2022-09-14T05:31:56;29.75;;;15.15;;
54539;SDS011;40438;52.992;18.604;2022-09-14T05:34:22;28.00;;;13.95;;
54539;SDS011;40438;52.992;18.604;2022-09-14T05:36:49;25.92;;;14.55;;
54539;SDS011;40438;52.992;18.604;2022-09-14T05:39:15;30.52;;;15.15;;
54539;SDS011;40438;52.992;18.604;2022-09-14T05:41:41;28.38;;;14.32;;
54539;SDS011;40438;52.992;18.604;2022-09-14T05:44:07;28.63;;;14.60;;
54539;SDS011;40438;52.992;18.604;2022-09-14T05:46:32;25.92;;;13.13;;
54539;SDS011;40438;52.992;18.604;2022-09-14T05:48:58;28.55;;;13.35;;
54539;SDS011;40438;52.992;18.604;2022-09-14T05:51:25;31.05;;;14.45;;
54539;SDS011;40438;52.992;18.604;2022-09-14T05:53:53;26.42;;;13.65;;
54539;SDS011;40438;52.992;18.604;2022-09-14T05:56:20;22.33;;;12.95;;
54539;SDS011;40438;52.992;18.604;2022-09-14T05:58:48;20.83;;;12.25;;
54539;SDS011;40438;52.992;18.604;2022-09-14T06:01:14;20.40;;;11.27;;
54539;SDS011;40438;52.992;18.604;2022-09-14T06:03:43;23.80;;;11.45;;
54539;SDS011;40438;52.992;18.604;2022-09-14T06:06:10;20.40;;;11.13;;
54539;SDS011;40438;52.992;18.604;2022-09-14T06:08:37;21.30;;;11.13;;
54539;SDS011;40438;52.992;18.604;2022-09-14T06:11:04;19.02;;;10.13;;
54539;SDS011;40438;52.992;18.604;2022-09-14T06:13:31;21.10;;;10.15;;
54539;SDS011;40438;52.992;18.604;2022-09-14T06:16:00;17.85;;;10.10;;
54539;SDS011;40438;52.992;18.604;2022-09-14T06:18:28;17.88;;;10.38;;
54539;SDS011;40438;52.992;18.604;2022-09-14T06:20:54;20.73;;;10.60;;
54539;SDS011;40438;52.992;18.604;2022-09-14T06:23:20;20.23;;;9.55;;
54539;SDS011;40438;52.992;18.604;2022-09-14T06:25:46;23.60;;;9.60;;
54539;SDS011;40438;52.992;18.604;2022-09-14T06:28:13;12.85;;;8.68;;
54539;SDS011;40438;52.992;18.604;2022-09-14T06:30:41;17.13;;;8.50;;
54539;SDS011;40438;52.992;18.604;2022-09-14T06:33:07;16.13;;;8.88;;
54539;SDS011;40438;52.992;18.604;2022-09-14T06:35:33;19.30;;;7.93;;
54539;SDS011;40438;52.992;18.604;2022-09-14T06:37:58;19.25;;;7.80;;
54539;SDS011;40438;52.992;18.604;2022-09-14T06:40:24;17.58;;;7.95;;
54539;SDS011;40438;52.992;18.604;2022-09-14T06:42:50;14.43;;;7.57;;
54539;SDS011;40438;52.992;18.604;2022-09-14T06:45:17;16.30;;;7.35;;
54539;SDS011;40438;52.992;18.604;2022-09-14T06:47:43;15.63;;;7.05;;
54539;SDS011;40438;52.992;18.604;2022-09-14T06:50:08;18.60;;;7.78;;
54539;SDS011;40438;52.992;18.604;2022-09-14T06:52:34;16.65;;;6.75;;
54539;SDS011;40438;52.992;18.604;2022-09-14T06:55:00;10.52;;;6.30;;
54539;SDS011;40438;52.992;18.604;2022-09-14T06:57:26;10.05;;;6.00;;
54539;SDS011;40438;52.992;18.604;2022-09-14T06:59:52;11.93;;;5.88;;
54539;SDS011;40438;52.992;18.604;2022-09-14T07:02:19;11.93;;;5.70;;
54539;SDS011;40438;52.992;18.604;2022-09-14T07:04:44;14.23;;;5.03;;
54539;SDS011;40438;52.992;18.604;2022-09-14T07:07:10;9.38;;;5.28;;
54539;SDS011;40438;52.992;18.604;2022-09-14T07:09:38;11.55;;;4.32;;
54539;SDS011;40438;52.992;18.604;2022-09-14T07:12:04;10.10;;;4.30;;
54539;SDS011;40438;52.992;18.604;2022-09-14T07:14:30;8.77;;;4.07;;
54539;SDS011;40438;52.992;18.604;2022-09-14T07:16:56;7.82;;;3.90;;
54539;SDS011;40438;52.992;18.604;2022-09-14T07:19:23;8.18;;;4.10;;
54539;SDS011;40438;52.992;18.604;2022-09-14T07:21:48;7.35;;;4.30;;
54539;SDS011;40438;52.992;18.604;2022-09-14T07:24:14;11.43;;;3.60;;
54539;SDS011;40438;52.992;18.604;2022-09-14T07:26:40;10.65;;;3.75;;
54539;SDS011;40438;52.992;18.604;2022-09-14T07:29:07;5.00;;;3.22;;
54539;SDS011;40438;52.992;18.604;2022-09-14T07:31:36;9.40;;;3.53;;
54539;SDS011;40438;52.992;18.604;2022-09-14T07:34:04;11.95;;;4.07;;
54539;SDS011;40438;52.992;18.604;2022-09-14T07:36:32;5.45;;;3.63;;
54539;SDS011;40438;52.992;18.604;2022-09-14T07:38:59;6.05;;;3.22;;
54539;SDS011;40438;52.992;18.604;2022-09-14T07:41:27;7.88;;;3.40;;
54539;SDS011;40438;52.992;18.604;2022-09-14T07:43:54;7.70;;;2.80;;
54539;SDS011;40438;52.992;18.604;2022-09-14T07:46:21;6.38;;;2.83;;
54539;SDS011;40438;52.992;18.604;2022-09-14T07:48:48;9.98;;;3.35;;
54539;SDS011;40438;52.992;18.604;2022-09-14T07:51:18;6.85;;;2.50;;
54539;SDS011;40438;52.992;18.604;2022-09-14T07:53:45;5.50;;;2.80;;
54539;SDS011;40438;52.992;18.604;2022-09-14T07:56:12;7.13;;;2.20;;
54539;SDS011;40438;52.992;18.604;2022-09-14T07:58:38;6.20;;;2.70;;
54539;SDS011;40438;52.992;18.604;2022-09-14T08:01:05;5.78;;;2.20;;
54539;SDS011;40438;52.992;18.604;2022-09-14T08:03:32;6.05;;;2.42;;
54539;SDS011;40438;52.992;18.604;2022-09-14T08:05:58;6.75;;;2.47;;
54539;SDS011;40438;52.992;18.604;2022-09-14T08:08:24;10.18;;;2.70;;
54539;SDS011;40438;52.992;18.604;2022-09-14T08:10:54;7.97;;;2.00;;
54539;SDS011;40438;52.992;18.604;2022-09-14T08:13:19;5.05;;;2.08;;
54539;SDS011;40438;52.992;18.604;2022-09-14T08:15:45;4.82;;;2.08;;
54539;SDS011;40438;52.992;18.604;2022-09-14T08:18:10;7.05;;;2.15;;
54539;SDS011;40438;52.992;18.604;2022-09-14T08:20:36;6.47;;;2.10;;
54539;SDS011;40438;52.992;18.604;2022-09-14T08:23:02;9.45;;;2.40;;
54539;SDS011;40438;52.992;18.604;2022-09-14T08:25:27;4.25;;;1.90;;
54539;SDS011;40438;52.992;18.604;2022-09-14T08:27:54;7.43;;;2.05;;
54539;SDS011;40438;52.992;18.604;2022-09-14T08:30:20;3.58;;;1.80;;
54539;SDS011;40438;52.992;18.604;2022-09-14T08:32:46;6.50;;;1.90;;
54539;SDS011;40438;52.992;18.604;2022-09-14T08:35:11;4.13;;;1.85;;
54539;SDS011;40438;52.992;18.604;2022-09-14T08:37:37;9.57;;;1.50;;
54539;SDS011;40438;52.992;18.604;2022-09-14T08:40:03;5.82;;;1.52;;
54539;SDS011;40438;52.992;18.604;2022-09-14T08:42:29;5.25;;;1.90;;
54539;SDS011;40438;52.992;18.604;2022-09-14T08:44:57;4.30;;;1.98;;
54539;SDS011;40438;52.992;18.604;2022-09-14T08:47:27;4.20;;;1.58;;
54539;SDS011;40438;52.992;18.604;2022-09-14T08:49:56;3.40;;;1.33;;
54539;SDS011;40438;52.992;18.604;2022-09-14T08:52:27;9.05;;;1.50;;
54539;SDS011;40438;52.992;18.604;2022-09-14T08:54:57;4.70;;;1.52;;
54539;SDS011;40438;52.992;18.604;2022-09-14T08:57:26;6.10;;;1.20;;
54539;SDS011;40438;52.992;18.604;2022-09-14T09:00:03;2.70;;;1.10;;
54539;SDS011;40438;52.992;18.604;2022-09-14T09:02:37;3.22;;;0.98;;
54539;SDS011;40438;52.992;18.604;2022-09-14T09:05:19;4.15;;;1.08;;
54539;SDS011;40438;52.992;18.604;2022-09-14T09:07:53;2.90;;;0.95;;
54539;SDS011;40438;52.992;18.604;2022-09-14T09:10:25;9.10;;;1.83;;
54539;SDS011;40438;52.992;18.604;2022-09-14T09:12:53;8.00;;;1.10;;
54539;SDS011;40438;52.992;18.604;2022-09-14T09:15:24;3.17;;;0.80;;
54539;SDS011;40438;52.992;18.604;2022-09-14T09:17:52;2.58;;;1.15;;
54539;SDS011;40438;52.992;18.604;2022-09-14T09:20:22;4.55;;;1.25;;
54539;SDS011;40438;52.992;18.604;2022-09-14T09:22:52;7.15;;;1.05;;
54539;SDS011;40438;52.992;18.604;2022-09-14T09:25:25;2.10;;;0.75;;
54539;SDS011;40438;52.992;18.604;2022-09-14T09:28:01;4.75;;;0.90;;
54539;SDS011;40438;52.992;18.604;2022-09-14T09:30:35;3.15;;;0.80;;
54539;SDS011;40438;52.992;18.604;2022-09-14T09:33:01;1.30;;;1.00;;
54539;SDS011;40438;52.992;18.604;2022-09-14T09:35:48;4.10;;;0.70;;
54539;SDS011;40438;52.992;18.604;2022-09-14T09:38:20;3.75;;;0.70;;
54539;SDS011;40438;52.992;18.604;2022-09-14T09:40:48;1.00;;;0.55;;
54539;SDS011;40438;52.992;18.604;2022-09-14T09:43:17;2.50;;;0.80;;
54539;SDS011;40438;52.992;18.604;2022-09-14T09:45:48;1.27;;;0.70;;
54539;SDS011;40438;52.992;18.604;2022-09-14T09:48:16;3.67;;;0.93;;
54539;SDS011;40438;52.992;18.604;2022-09-14T09:50:46;5.25;;;0.80;;
54539;SDS011;40438;52.992;18.604;2022-09-14T09:53:15;5.03;;;0.90;;
54539;SDS011;40438;52.992;18.604;2022-09-14T09:55:44;2.25;;;0.70;;
54539;SDS011;40438;52.992;18.604;2022-09-14T09:58:19;1.25;;;0.80;;
54539;SDS011;40438;52.992;18.604;2022-09-14T10:00:56;2.30;;;0.80;;
54539;SDS011;40438;52.992;18.604;2022-09-14T10:03:27;1.70;;;0.80;;
54539;SDS011;40438;52.992;18.604;2022-09-14T10:05:59;4.43;;;0.70;;
54539;SDS011;40438;52.992;18.604;2022-09-14T10:08:26;3.15;;;0.80;;
54539;SDS011;40438;52.992;18.604;2022-09-14T10:10:52;2.92;;;0.88;;
54539;SDS011;40438;52.992;18.604;2022-09-14T10:13:21;1.42;;;0.77;;
54539;SDS011;40438;52.992;18.604;2022-09-14T10:15:51;4.00;;;0.82;;
54539;SDS011;40438;52.992;18.604;2022-09-14T10:18:18;2.10;;;0.70;;
54539;SDS011;40438;52.992;18.604;2022-09-14T10:23:31;1.85;;;1.05;;
54539;SDS011;40438;52.992;18.604;2022-09-14T10:28:50;3.22;;;0.98;;
54539;SDS011;40438;52.992;18.604;2022-09-14T10:31:17;5.28;;;1.52;;
54539;SDS011;40438;52.992;18.604;2022-09-14T10:33:51;2.55;;;0.98;;
54539;SDS011;40438;52.992;18.604;2022-09-14T10:36:19;4.72;;;1.33;;
54539;SDS011;40438;52.992;18.604;2022-09-14T10:38:49;2.50;;;0.70;;
54539;SDS011;40438;52.992;18.604;2022-09-14T10:41:19;2.83;;;0.70;;
54539;SDS011;40438;52.992;18.604;2022-09-14T10:46:53;2.47;;;0.70;;
54539;SDS011;40438;52.992;18.604;2022-09-14T10:49:37;2.83;;;1.35;;
54539;SDS011;40438;52.992;18.604;2022-09-14T10:52:14;3.63;;;0.80;;
54539;SDS011;40438;52.992;18.604;2022-09-14T10:54:52;4.88;;;0.88;;
54539;SDS011;40438;52.992;18.604;2022-09-14T10:57:35;2.15;;;0.65;;
54539;SDS011;40438;52.992;18.604;2022-09-14T11:00:12;3.85;;;1.00;;
54539;SDS011;40438;52.992;18.604;2022-09-14T11:02:56;2.10;;;0.77;;
54539;SDS011;40438;52.992;18.604;2022-09-14T11:05:36;1.00;;;0.70;;
54539;SDS011;40438;52.992;18.604;2022-09-14T11:08:09;10.30;;;1.63;;
54539;SDS011;40438;52.992;18.604;2022-09-14T11:10:45;10.10;;;1.52;;
54539;SDS011;40438;52.992;18.604;2022-09-14T11:13:37;8.45;;;1.05;;
54539;SDS011;40438;52.992;18.604;2022-09-14T11:16:17;2.25;;;1.00;;
54539;SDS011;40438;52.992;18.604;2022-09-14T11:18:56;2.72;;;0.98;;
54539;SDS011;40438;52.992;18.604;2022-09-14T11:21:30;1.77;;;0.90;;
54539;SDS011;40438;52.992;18.604;2022-09-14T11:24:10;3.17;;;0.68;;
54539;SDS011;40438;52.992;18.604;2022-09-14T11:26:42;4.75;;;0.70;;
54539;SDS011;40438;52.992;18.604;2022-09-14T11:29:15;2.20;;;0.93;;
54539;SDS011;40438;52.992;18.604;2022-09-14T11:31:47;1.95;;;0.90;;
54539;SDS011;40438;52.992;18.604;2022-09-14T11:34:17;3.55;;;0.88;;
54539;SDS011;40438;52.992;18.604;2022-09-14T11:36:47;6.22;;;0.90;;
54539;SDS011;40438;52.992;18.604;2022-09-14T11:39:17;2.20;;;0.82;;
54539;SDS011;40438;52.992;18.604;2022-09-14T11:41:46;6.50;;;0.75;;
54539;SDS011;40438;52.992;18.604;2022-09-14T11:44:15;1.35;;;0.70;;
54539;SDS011;40438;52.992;18.604;2022-09-14T11:46:46;1.92;;;0.90;;
54539;SDS011;40438;52.992;18.604;2022-09-14T11:49:17;2.53;;;0.80;;
54539;SDS011;40438;52.992;18.604;2022-09-14T11:51:48;1.00;;;0.52;;
54539;SDS011;40438;52.992;18.604;2022-09-14T11:54:18;1.17;;;0.65;;
54539;SDS011;40438;52.992;18.604;2022-09-14T11:56:46;5.22;;;0.80;;
54539;SDS011;40438;52.992;18.604;2022-09-14T12:05:26;1.70;;;0.65;;
54539;SDS011;40438;52.992;18.604;2022-09-14T12:07:58;2.42;;;1.00;;
54539;SDS011;40438;52.992;18.604;2022-09-14T12:10:25;4.85;;;0.90;;
54539;SDS011;40438;52.992;18.604;2022-09-14T12:12:52;6.10;;;1.23;;
54539;SDS011;40438;52.992;18.604;2022-09-14T12:15:21;3.88;;;1.08;;
54539;SDS011;40438;52.992;18.604;2022-09-14T12:20:46;1.20;;;0.80;;
54539;SDS011;40438;52.992;18.604;2022-09-14T12:23:22;2.17;;;0.93;;
54539;SDS011;40438;52.992;18.604;2022-09-14T12:25:54;2.13;;;0.93;;
54539;SDS011;40438;52.992;18.604;2022-09-14T12:31:11;3.85;;;1.10;;
54539;SDS011;40438;52.992;18.604;2022-09-14T12:36:56;3.83;;;1.23;;
54539;SDS011;40438;52.992;18.604;2022-09-14T12:42:58;2.28;;;1.00;;
54539;SDS011;40438;52.992;18.604;2022-09-14T12:46:29;3.10;;;0.93;;
54539;SDS011;40438;52.992;18.604;2022-09-14T12:49:16;3.20;;;1.23;;
54539;SDS011;40438;52.992;18.604;2022-09-14T12:51:50;2.30;;;1.10;;
54539;SDS011;40438;52.992;18.604;2022-09-14T12:54:19;5.78;;;1.02;;
54539;SDS011;40438;52.992;18.604;2022-09-14T12:56:52;2.78;;;0.90;;
54539;SDS011;40438;52.992;18.604;2022-09-14T12:59:32;3.92;;;1.15;;
54539;SDS011;40438;52.992;18.604;2022-09-14T13:02:12;6.93;;;1.23;;
54539;SDS011;40438;52.992;18.604;2022-09-14T13:04:59;1.88;;;0.85;;
54539;SDS011;40438;52.992;18.604;2022-09-14T13:07:29;3.70;;;1.13;;
54539;SDS011;40438;52.992;18.604;2022-09-14T13:12:26;5.63;;;1.20;;
54539;SDS011;40438;52.992;18.604;2022-09-14T13:14:58;5.88;;;1.20;;
54539;SDS011;40438;52.992;18.604;2022-09-14T13:17:27;5.75;;;1.25;;
54539;SDS011;40438;52.992;18.604;2022-09-14T13:19:53;4.00;;;1.10;;
54539;SDS011;40438;52.992;18.604;2022-09-14T13:22:21;4.22;;;1.25;;
54539;SDS011;40438;52.992;18.604;2022-09-14T13:24:48;10.70;;;1.23;;
54539;SDS011;40438;52.992;18.604;2022-09-14T13:27:19;2.58;;;1.10;;
54539;SDS011;40438;52.992;18.604;2022-09-14T13:29:47;2.63;;;1.17;;
54539;SDS011;40438;52.992;18.604;2022-09-14T13:32:23;4.88;;;1.20;;
54539;SDS011;40438;52.992;18.604;2022-09-14T13:34:50;4.07;;;1.17;;
54539;SDS011;40438;52.992;18.604;2022-09-14T13:37:16;4.57;;;1.17;;
54539;SDS011;40438;52.992;18.604;2022-09-14T13:39:43;3.65;;;1.17;;
54539;SDS011;40438;52.992;18.604;2022-09-14T13:42:14;5.07;;;1.70;;
54539;SDS011;40438;52.992;18.604;2022-09-14T13:44:41;2.20;;;1.13;;
54539;SDS011;40438;52.992;18.604;2022-09-14T13:47:11;4.47;;;1.10;;
54539;SDS011;40438;52.992;18.604;2022-09-14T13:49:38;2.63;;;1.33;;
54539;SDS011;40438;52.992;18.604;2022-09-14T13:52:22;1.92;;;0.93;;
54539;SDS011;40438;52.992;18.604;2022-09-14T13:54:52;2.45;;;1.17;;
54539;SDS011;40438;52.992;18.604;2022-09-14T13:57:20;7.03;;;1.52;;
54539;SDS011;40438;52.992;18.604;2022-09-14T14:02:48;4.18;;;1.40;;
54539;SDS011;40438;52.992;18.604;2022-09-14T14:05:19;5.15;;;1.35;;
54539;SDS011;40438;52.992;18.604;2022-09-14T14:07:49;3.00;;;1.13;;
54539;SDS011;40438;52.992;18.604;2022-09-14T14:10:22;4.10;;;1.35;;
54539;SDS011;40438;52.992;18.604;2022-09-14T14:12:51;2.92;;;1.25;;
54539;SDS011;40438;52.992;18.604;2022-09-14T14:21:03;3.95;;;1.30;;
54539;SDS011;40438;52.992;18.604;2022-09-14T14:23:40;3.28;;;1.63;;
54539;SDS011;40438;52.992;18.604;2022-09-14T14:26:07;3.28;;;1.30;;
54539;SDS011;40438;52.992;18.604;2022-09-14T14:28:34;3.22;;;1.20;;
54539;SDS011;40438;52.992;18.604;2022-09-14T14:31:00;4.53;;;1.20;;
54539;SDS011;40438;52.992;18.604;2022-09-14T14:33:26;3.08;;;1.40;;
54539;SDS011;40438;52.992;18.604;2022-09-14T14:35:54;2.38;;;1.17;;
54539;SDS011;40438;52.992;18.604;2022-09-14T14:38:20;3.35;;;1.10;;
54539;SDS011;40438;52.992;18.604;2022-09-14T14:40:46;3.75;;;1.20;;
54539;SDS011;40438;52.992;18.604;2022-09-14T14:43:14;2.25;;;1.20;;
54539;SDS011;40438;52.992;18.604;2022-09-14T14:45:42;4.88;;;1.45;;
54539;SDS011;40438;52.992;18.604;2022-09-14T14:48:08;7.30;;;1.23;;
54539;SDS011;40438;52.992;18.604;2022-09-14T14:50:35;3.75;;;1.20;;
54539;SDS011;40438;52.992;18.604;2022-09-14T14:53:02;3.17;;;1.15;;
54539;SDS011;40438;52.992;18.604;2022-09-14T14:55:29;2.53;;;1.00;;
54539;SDS011;40438;52.992;18.604;2022-09-14T14:57:56;4.32;;;1.30;;
54539;SDS011;40438;52.992;18.604;2022-09-14T15:00:23;4.72;;;1.30;;
54539;SDS011;40438;52.992;18.604;2022-09-14T15:02:49;6.82;;;1.58;;
54539;SDS011;40438;52.992;18.604;2022-09-14T15:05:15;3.30;;;1.33;;
54539;SDS011;40438;52.992;18.604;2022-09-14T15:07:41;4.40;;;1.45;;
54539;SDS011;40438;52.992;18.604;2022-09-14T15:10:10;11.48;;;1.48;;
54539;SDS011;40438;52.992;18.604;2022-09-14T15:12:38;3.42;;;1.70;;
54539;SDS011;40438;52.992;18.604;2022-09-14T15:15:05;5.10;;;1.40;;